Time;durP1;ratioP1;P1;durP2;ratioP2;P2;SDS_P1;SDS_P2;PMS_P1;PMS_P2;Temp;Humidity;BMP_temperature;BMP_pressure;BME280_temperature;BME280_humidity;BME280_pressure;Samples;Min_cycle;Max_cycle;Signal;HPM_P1;HPM_P2
2021/08/21 00:00:35;;;;;;;11.88;7.18;;;15.10;99.90;;;;;;5057152;28;20020;-60
2021/08/21 00:03:00;;;;;;;11.05;7.03;;;15.10;99.90;;;;;;5052940;28;20059;-61
2021/08/21 00:05:26;;;;;;;13.63;7.18;;;15.10;99.90;;;;;;5051335;28;20094;-58
2021/08/21 00:07:52;;;;;;;19.67;8.15;;;15.20;99.90;;;;;;5044110;28;20059;-60
2021/08/21 00:10:18;;;;;;;9.65;6.35;;;15.20;99.90;;;;;;5048638;28;20427;-60
2021/08/21 00:12:43;;;;;;;11.02;6.32;;;15.30;99.90;;;;;;5056653;28;21736;-58
2021/08/21 00:15:12;;;;;;;14.25;5.35;;;15.30;99.90;;;;;;5053878;28;20036;-59
2021/08/21 00:17:38;;;;;;;13.35;6.45;;;15.20;99.90;;;;;;5050596;28;20031;-59
2021/08/21 00:20:09;;;;;;;18.30;7.18;;;15.10;99.90;;;;;;5056995;28;20033;-61
2021/08/21 00:22:34;;;;;;;14.38;7.82;;;15.10;99.90;;;;;;5049000;28;20539;-58
2021/08/21 00:25:00;;;;;;;14.95;7.20;;;15.00;99.90;;;;;;5049310;28;20054;-58
2021/08/21 00:27:27;;;;;;;12.55;7.18;;;15.00;99.90;;;;;;5058266;28;20032;-61
2021/08/21 00:29:54;;;;;;;17.20;8.77;;;15.00;99.90;;;;;;5051255;28;20034;-59
2021/08/21 00:32:19;;;;;;;17.08;7.43;;;15.00;99.90;;;;;;5056464;28;20029;-61
2021/08/21 00:34:45;;;;;;;14.38;7.88;;;14.90;99.90;;;;;;5053126;28;20035;-60
2021/08/21 00:37:10;;;;;;;13.45;7.80;;;14.90;99.90;;;;;;5055638;28;20035;-59
2021/08/21 00:39:37;;;;;;;14.45;7.38;;;14.90;99.90;;;;;;5051584;28;20481;-59
2021/08/21 00:42:06;;;;;;;15.80;7.38;;;14.90;99.90;;;;;;5054720;28;20037;-58
2021/08/21 00:44:32;;;;;;;12.63;7.53;;;14.90;99.90;;;;;;5053838;28;20028;-59
2021/08/21 00:47:17;;;;;;;17.30;6.97;;;14.90;99.90;;;;;;5056092;28;20036;-61
2021/08/21 00:50:00;;;;;;;20.85;7.30;;;15.00;99.90;;;;;;5049370;28;20116;-61
2021/08/21 00:52:34;;;;;;;12.82;7.72;;;14.90;99.90;;;;;;5056196;28;20063;-59
2021/08/21 00:55:00;;;;;;;13.63;7.63;;;14.90;99.90;;;;;;5052990;28;20090;-55
2021/08/21 00:57:26;;;;;;;16.52;7.80;;;14.80;99.90;;;;;;5056855;28;20037;-61
2021/08/21 00:59:52;;;;;;;16.25;7.32;;;14.80;99.90;;;;;;5053584;28;20029;-59
2021/08/21 01:02:21;;;;;;;11.52;7.63;;;14.80;99.90;;;;;;5052164;28;20014;-62
2021/08/21 01:04:54;;;;;;;18.58;7.47;;;14.80;99.90;;;;;;5052100;28;20040;-62
2021/08/21 01:07:24;;;;;;;21.42;7.50;;;14.70;99.90;;;;;;5050782;28;20075;-61
2021/08/21 01:09:50;;;;;;;18.10;8.27;;;14.70;99.90;;;;;;5052300;28;20024;-58
2021/08/21 01:12:18;;;;;;;12.05;7.20;;;14.70;99.90;;;;;;5059650;28;20028;-57
2021/08/21 01:14:45;;;;;;;15.80;7.65;;;14.70;99.90;;;;;;5038375;28;20090;-59
2021/08/21 01:17:12;;;;;;;13.00;7.57;;;14.70;99.90;;;;;;5050244;28;20032;-59
2021/08/21 01:19:41;;;;;;;13.88;7.68;;;14.60;99.90;;;;;;5051388;28;20032;-57
2021/08/21 01:22:12;;;;;;;13.30;7.85;;;14.60;99.90;;;;;;5053896;28;20111;-58
2021/08/21 01:24:40;;;;;;;16.90;7.55;;;14.60;99.90;;;;;;5062139;28;20021;-60
2021/08/21 01:27:05;;;;;;;11.48;7.78;;;14.60;99.90;;;;;;5063112;28;20032;-56
2021/08/21 01:29:31;;;;;;;18.40;9.35;;;14.60;99.90;;;;;;5056219;28;20025;-58
2021/08/21 01:31:57;;;;;;;13.13;8.55;;;14.60;99.90;;;;;;5057767;28;20044;-59
2021/08/21 01:34:22;;;;;;;14.52;7.60;;;14.50;99.90;;;;;;5058533;28;20017;-59
2021/08/21 01:36:49;;;;;;;19.35;7.60;;;14.50;99.90;;;;;;5057459;28;20082;-59
2021/08/21 01:39:16;;;;;;;13.55;7.93;;;14.50;99.90;;;;;;5028660;28;20508;-59
2021/08/21 01:41:42;;;;;;;13.88;7.28;;;14.50;99.90;;;;;;5066178;28;20487;-58
2021/08/21 01:44:13;;;;;;;15.80;6.35;;;14.50;99.90;;;;;;5059071;28;20043;-59
2021/08/21 01:46:39;;;;;;;12.45;7.63;;;14.60;99.90;;;;;;5057215;28;21030;-59
2021/08/21 01:49:08;;;;;;;12.68;7.55;;;14.60;99.90;;;;;;5059322;28;20393;-61
2021/08/21 01:51:36;;;;;;;13.38;8.23;;;14.50;99.90;;;;;;5068394;28;20021;-59
2021/08/21 01:54:01;;;;;;;10.70;7.50;;;14.50;99.90;;;;;;5055584;28;20052;-59
2021/08/21 01:56:27;;;;;;;11.68;7.88;;;14.50;99.90;;;;;;5059864;28;20485;-60
2021/08/21 01:58:53;;;;;;;12.40;7.97;;;14.40;99.90;;;;;;5062723;28;20025;-60
2021/08/21 02:01:18;;;;;;;11.13;7.50;;;14.40;99.90;;;;;;5055540;28;20032;-57
2021/08/21 02:03:46;;;;;;;12.65;6.70;;;14.30;99.90;;;;;;5058368;28;20099;-59
2021/08/21 02:06:15;;;;;;;16.83;8.20;;;14.30;99.90;;;;;;5062832;28;20024;-60
2021/08/21 02:08:41;;;;;;;13.55;7.05;;;14.30;99.90;;;;;;5052052;28;20549;-59
2021/08/21 02:11:07;;;;;;;11.35;7.32;;;14.20;99.90;;;;;;5058054;28;20488;-59
2021/08/21 02:13:34;;;;;;;15.90;7.65;;;14.30;99.90;;;;;;5063366;28;20052;-57
2021/08/21 02:16:00;;;;;;;13.40;8.65;;;14.20;99.90;;;;;;5054862;28;20109;-59
2021/08/21 02:18:26;;;;;;;19.05;8.77;;;14.30;99.90;;;;;;5057282;28;20458;-57
2021/08/21 02:20:51;;;;;;;11.80;7.55;;;14.20;99.90;;;;;;5061401;28;20103;-58
2021/08/21 02:23:17;;;;;;;11.77;7.47;;;14.30;99.90;;;;;;5063832;28;20036;-58
2021/08/21 02:25:43;;;;;;;12.02;7.50;;;14.30;99.90;;;;;;5055878;28;20407;-59
2021/08/21 02:28:18;;;;;;;11.88;6.95;;;14.30;99.90;;;;;;5055131;28;20025;-58
2021/08/21 02:30:44;;;;;;;13.18;8.60;;;14.40;99.90;;;;;;5059883;28;20090;-57
2021/08/21 02:33:10;;;;;;;12.43;7.45;;;14.40;99.90;;;;;;5065671;28;20025;-57
2021/08/21 02:35:36;;;;;;;15.50;8.13;;;14.30;99.90;;;;;;5055283;28;20047;-54
2021/08/21 02:38:03;;;;;;;11.02;7.63;;;14.30;99.90;;;;;;5053424;28;20508;-59
2021/08/21 02:40:28;;;;;;;13.55;6.90;;;14.30;99.90;;;;;;5057782;28;20029;-58
2021/08/21 02:42:54;;;;;;;14.40;8.18;;;14.30;99.90;;;;;;5055934;28;20031;-60
2021/08/21 02:45:20;;;;;;;12.68;8.20;;;14.20;99.90;;;;;;5052004;28;20013;-60
2021/08/21 02:47:45;;;;;;;20.77;8.70;;;14.30;99.90;;;;;;5068107;22;20555;-61
2021/08/21 02:50:11;;;;;;;17.80;8.75;;;14.20;99.90;;;;;;5019436;28;20473;-60
2021/08/21 02:52:37;;;;;;;14.98;8.13;;;14.20;99.90;;;;;;5024661;28;20017;-60
2021/08/21 02:55:03;;;;;;;16.13;7.35;;;14.20;99.90;;;;;;5029970;28;20092;-60
2021/08/21 02:57:29;;;;;;;15.85;7.43;;;14.30;99.90;;;;;;5023235;28;20068;-60
2021/08/21 02:59:55;;;;;;;11.10;7.35;;;14.30;99.90;;;;;;5019041;28;20051;-62
2021/08/21 03:02:20;;;;;;;8.52;6.65;;;14.30;99.90;;;;;;5017441;28;20028;-60
2021/08/21 03:04:46;;;;;;;12.05;7.47;;;14.30;99.90;;;;;;5016947;28;20034;-62
2021/08/21 03:07:11;;;;;;;13.95;6.95;;;14.30;99.90;;;;;;5017941;28;20025;-61
2021/08/21 03:09:37;;;;;;;14.05;7.47;;;14.30;99.90;;;;;;5012604;28;20043;-61
2021/08/21 03:12:03;;;;;;;11.05;7.57;;;14.20;99.90;;;;;;5023881;28;20029;-60
2021/08/21 03:14:28;;;;;;;13.63;6.70;;;14.30;99.90;;;;;;5021226;28;20037;-61
2021/08/21 03:16:54;;;;;;;14.30;8.57;;;14.30;99.90;;;;;;5036210;28;20076;-60
2021/08/21 03:19:19;;;;;;;13.88;8.38;;;14.30;99.90;;;;;;5027881;28;20461;-61
2021/08/21 03:21:45;;;;;;;8.32;6.60;;;14.20;99.90;;;;;;5042089;28;20025;-60
2021/08/21 03:24:10;;;;;;;13.82;8.18;;;14.20;99.90;;;;;;5033193;28;20421;-60
2021/08/21 03:26:36;;;;;;;12.57;7.45;;;14.20;99.90;;;;;;5023552;28;20029;-60
2021/08/21 03:29:03;;;;;;;13.93;7.32;;;14.20;99.90;;;;;;5027669;28;20069;-61
2021/08/21 03:31:28;;;;;;;18.23;8.15;;;14.20;99.90;;;;;;5017853;28;20069;-60
2021/08/21 03:33:54;;;;;;;20.85;7.50;;;14.10;99.90;;;;;;5020914;28;20057;-60
2021/08/21 03:36:19;;;;;;;16.60;8.35;;;14.10;99.90;;;;;;5012338;28;20080;-61
2021/08/21 03:38:45;;;;;;;17.98;7.93;;;14.00;99.90;;;;;;5013435;28;20033;-60
2021/08/21 03:41:10;;;;;;;21.88;8.68;;;14.00;99.90;;;;;;5009268;28;20741;-62
2021/08/21 03:43:36;;;;;;;15.90;8.48;;;14.00;99.90;;;;;;5009692;28;20087;-60
2021/08/21 03:46:02;;;;;;;17.48;8.18;;;14.10;99.90;;;;;;5019136;28;20025;-62
2021/08/21 03:48:28;;;;;;;16.77;8.32;;;14.00;99.90;;;;;;5017269;28;20041;-62
2021/08/21 03:50:53;;;;;;;13.20;8.15;;;14.00;99.90;;;;;;5015446;28;20044;-59
2021/08/21 03:53:19;;;;;;;17.17;8.50;;;14.00;99.90;;;;;;5011144;28;20030;-60
2021/08/21 03:55:45;;;;;;;10.30;7.80;;;14.00;99.90;;;;;;5016450;28;20033;-60
2021/08/21 03:58:10;;;;;;;17.85;8.52;;;13.90;99.90;;;;;;5012728;28;20037;-61
2021/08/21 04:00:36;;;;;;;14.77;7.95;;;14.00;99.90;;;;;;5014230;28;20018;-63
2021/08/21 04:03:01;;;;;;;12.65;8.07;;;14.00;99.90;;;;;;5014326;28;20025;-61
2021/08/21 04:05:29;;;;;;;10.95;7.90;;;14.10;99.90;;;;;;5011888;28;20030;-59
2021/08/21 04:07:55;;;;;;;17.83;8.55;;;14.10;99.90;;;;;;5016277;28;20029;-59
2021/08/21 04:10:20;;;;;;;12.30;8.23;;;14.10;99.90;;;;;;5009893;28;20072;-61
2021/08/21 04:12:46;;;;;;;12.98;8.45;;;14.00;99.90;;;;;;5013198;28;20505;-59
2021/08/21 04:15:11;;;;;;;12.43;7.45;;;14.10;99.90;;;;;;5012970;28;20065;-58
2021/08/21 04:17:37;;;;;;;12.70;8.65;;;14.10;99.90;;;;;;5010316;28;20033;-60
2021/08/21 04:20:04;;;;;;;11.50;8.23;;;14.10;99.90;;;;;;5008567;28;20539;-59
2021/08/21 04:22:30;;;;;;;12.57;7.45;;;14.10;99.90;;;;;;5011101;28;20030;-57
2021/08/21 04:24:56;;;;;;;9.20;7.57;;;14.10;99.90;;;;;;5015768;28;20017;-58
2021/08/21 04:27:22;;;;;;;11.35;8.00;;;14.20;99.90;;;;;;5023615;28;20559;-61
2021/08/21 04:29:47;;;;;;;9.65;6.82;;;14.20;99.90;;;;;;5016741;28;20034;-58
2021/08/21 04:32:13;;;;;;;10.73;6.93;;;14.10;99.90;;;;;;5015950;28;20034;-58
2021/08/21 04:34:38;;;;;;;8.75;6.68;;;14.20;99.90;;;;;;5012748;28;20033;-58
2021/08/21 04:37:05;;;;;;;14.05;7.63;;;14.20;99.90;;;;;;5010643;28;20042;-58
2021/08/21 04:39:31;;;;;;;10.63;7.78;;;14.20;99.90;;;;;;5009501;28;20404;-59
2021/08/21 04:41:56;;;;;;;11.13;7.88;;;14.20;99.90;;;;;;5009392;28;20029;-60
2021/08/21 04:44:22;;;;;;;11.48;8.00;;;14.20;99.90;;;;;;5010986;28;20037;-57
2021/08/21 04:46:47;;;;;;;10.50;8.25;;;14.20;99.90;;;;;;5011739;28;20041;-61
2021/08/21 04:49:13;;;;;;;11.75;7.63;;;14.20;99.90;;;;;;5010589;28;20095;-57
2021/08/21 04:51:38;;;;;;;14.07;8.43;;;14.20;99.90;;;;;;5013468;28;20156;-60
2021/08/21 04:54:04;;;;;;;16.75;7.43;;;14.10;99.90;;;;;;5009280;28;20394;-61
2021/08/21 04:56:30;;;;;;;14.18;8.13;;;14.10;99.90;;;;;;5016122;28;20083;-58
2021/08/21 04:58:55;;;;;;;17.10;8.68;;;14.10;99.90;;;;;;5013439;28;20056;-60
2021/08/21 05:01:21;;;;;;;14.05;8.43;;;14.20;99.90;;;;;;5016521;28;20049;-60
2021/08/21 05:03:47;;;;;;;18.50;8.15;;;14.20;99.90;;;;;;5013261;28;20038;-61
2021/08/21 05:06:12;;;;;;;18.63;9.43;;;14.10;99.90;;;;;;5017153;28;20034;-61
2021/08/21 05:08:38;;;;;;;20.13;9.48;;;14.20;99.90;;;;;;5015910;28;20040;-62
2021/08/21 05:11:04;;;;;;;14.85;9.15;;;14.10;99.90;;;;;;5015219;28;20095;-60
2021/08/21 05:13:31;;;;;;;20.17;10.57;;;14.10;99.90;;;;;;5011984;28;20079;-60
2021/08/21 05:15:57;;;;;;;15.68;9.45;;;14.20;99.90;;;;;;5022210;28;20112;-60
2021/08/21 05:18:30;;;;;;;15.18;11.15;;;14.20;99.90;;;;;;5016241;28;20456;-59
2021/08/21 05:21:05;;;;;;;23.45;12.00;;;14.20;99.90;;;;;;5017628;28;20040;-59
2021/08/21 05:23:30;;;;;;;25.45;11.10;;;14.30;99.90;;;;;;5020881;28;20380;-58
2021/08/21 05:25:56;;;;;;;17.88;11.18;;;14.30;99.90;;;;;;5014571;28;20042;-60
2021/08/21 05:28:22;;;;;;;18.67;11.25;;;14.30;99.90;;;;;;5015649;28;20025;-59
2021/08/21 05:30:48;;;;;;;18.27;10.43;;;14.40;99.90;;;;;;5018357;28;20424;-61
2021/08/21 05:33:15;;;;;;;18.85;11.30;;;14.50;99.90;;;;;;5016905;28;20500;-59
2021/08/21 05:35:41;;;;;;;18.10;11.70;;;14.60;99.90;;;;;;5023256;28;20038;-61
2021/08/21 05:38:07;;;;;;;17.05;11.88;;;14.60;99.90;;;;;;5018355;28;20037;-60
2021/08/21 05:40:33;;;;;;;18.83;12.07;;;14.70;99.90;;;;;;5015327;28;20049;-62
2021/08/21 05:42:59;;;;;;;20.90;12.60;;;14.70;99.90;;;;;;5013916;28;20030;-61
2021/08/21 05:45:25;;;;;;;18.40;12.48;;;14.80;99.90;;;;;;5012986;28;20030;-60
2021/08/21 05:47:51;;;;;;;18.60;11.15;;;14.90;99.90;;;;;;5017897;28;20400;-62
2021/08/21 05:50:18;;;;;;;18.17;10.98;;;15.00;99.90;;;;;;5012610;28;20087;-61
2021/08/21 05:52:45;;;;;;;15.35;9.82;;;15.00;99.90;;;;;;5019790;28;20068;-60
2021/08/21 05:55:11;;;;;;;16.92;11.25;;;15.10;99.90;;;;;;5016112;28;20148;-60
2021/08/21 05:57:36;;;;;;;19.25;10.57;;;15.20;99.90;;;;;;5014661;28;20052;-60
2021/08/21 06:00:04;;;;;;;16.92;11.00;;;15.20;99.90;;;;;;5014662;28;20037;-58
2021/08/21 06:02:29;;;;;;;19.00;12.27;;;15.30;99.90;;;;;;5019426;28;20401;-59
2021/08/21 06:04:56;;;;;;;15.73;11.55;;;15.30;99.90;;;;;;5016520;28;20026;-58
2021/08/21 06:07:21;;;;;;;16.52;10.73;;;15.30;99.90;;;;;;5015202;28;20030;-57
2021/08/21 06:09:47;;;;;;;17.10;11.10;;;15.40;99.90;;;;;;5017604;28;20040;-57
2021/08/21 06:12:12;;;;;;;16.73;10.05;;;15.40;99.90;;;;;;5013451;28;20033;-59
2021/08/21 06:14:39;;;;;;;14.77;9.77;;;15.50;99.90;;;;;;5012871;28;20077;-58
2021/08/21 06:17:06;;;;;;;12.77;9.48;;;15.50;99.90;;;;;;5025332;28;20030;-57
2021/08/21 06:19:32;;;;;;;14.75;9.88;;;15.50;99.90;;;;;;5024124;28;20548;-57
2021/08/21 06:21:57;;;;;;;17.35;9.80;;;15.50;99.90;;;;;;5012488;28;20104;-58
2021/08/21 06:24:23;;;;;;;19.55;10.05;;;15.50;99.90;;;;;;5020686;28;20025;-58
2021/08/21 06:26:48;;;;;;;13.73;9.73;;;15.50;99.90;;;;;;5025408;28;20022;-57
2021/08/21 06:29:14;;;;;;;17.35;10.43;;;15.50;99.90;;;;;;5018980;28;20030;-57
2021/08/21 06:31:39;;;;;;;13.20;10.02;;;15.50;99.90;;;;;;5015943;28;20026;-57
2021/08/21 06:34:05;;;;;;;18.17;9.50;;;15.50;99.90;;;;;;5019370;28;20030;-64
2021/08/21 06:36:30;;;;;;;12.25;8.70;;;15.50;99.90;;;;;;5014468;28;20029;-58
2021/08/21 06:38:56;;;;;;;13.27;9.52;;;15.50;99.90;;;;;;5023529;28;20099;-56
2021/08/21 06:41:21;;;;;;;12.07;9.45;;;15.60;99.90;;;;;;5026798;28;20031;-60
2021/08/21 06:43:47;;;;;;;10.55;7.93;;;15.60;99.90;;;;;;5016395;28;20494;-57
2021/08/21 06:46:12;;;;;;;10.63;7.95;;;15.60;99.90;;;;;;5017784;28;20029;-56
2021/08/21 06:48:38;;;;;;;13.57;7.75;;;15.70;99.90;;;;;;5014764;28;20030;-59
2021/08/21 06:51:03;;;;;;;18.67;8.07;;;15.70;99.90;;;;;;5019844;28;20040;-57
2021/08/21 06:53:30;;;;;;;9.60;7.43;;;15.80;99.90;;;;;;5025414;28;20033;-59
2021/08/21 06:55:56;;;;;;;11.02;7.38;;;15.80;99.90;;;;;;5016370;28;20056;-58
2021/08/21 06:58:22;;;;;;;10.63;7.13;;;15.90;99.90;;;;;;5014582;28;20497;-61
2021/08/21 07:00:49;;;;;;;10.30;7.60;;;15.90;99.90;;;;;;5017370;28;20029;-60
2021/08/21 07:03:14;;;;;;;8.57;6.00;;;16.00;99.90;;;;;;5017980;28;20116;-61
2021/08/21 07:05:41;;;;;;;11.88;6.63;;;16.10;99.90;;;;;;5013204;28;20034;-59
2021/08/21 07:08:07;;;;;;;8.00;6.85;;;16.10;99.90;;;;;;5022199;28;20508;-62
2021/08/21 07:10:32;;;;;;;7.78;6.47;;;16.20;99.90;;;;;;5015945;28;20038;-59
2021/08/21 07:12:58;;;;;;;7.60;6.40;;;16.30;99.90;;;;;;5013410;28;20037;-57
2021/08/21 07:15:23;;;;;;;13.18;7.00;;;16.30;99.90;;;;;;5020027;28;20566;-57
2021/08/21 07:17:49;;;;;;;9.07;7.18;;;16.40;99.90;;;;;;5015483;28;20042;-62
2021/08/21 07:20:14;;;;;;;10.32;7.68;;;16.50;99.90;;;;;;5020443;28;20075;-59
2021/08/21 07:22:40;;;;;;;8.88;7.50;;;16.60;99.90;;;;;;5012301;28;20084;-58
2021/08/21 07:25:06;;;;;;;11.60;7.55;;;16.70;99.90;;;;;;5015956;28;20025;-60
2021/08/21 07:27:31;;;;;;;8.90;6.40;;;16.80;99.90;;;;;;5015947;28;20485;-60
2021/08/21 07:29:57;;;;;;;11.68;5.97;;;16.90;99.90;;;;;;5017203;28;20033;-56
2021/08/21 07:32:22;;;;;;;7.32;6.13;;;17.00;99.90;;;;;;5019255;28;20044;-58
2021/08/21 07:34:48;;;;;;;8.57;6.95;;;17.00;99.90;;;;;;5019977;28;20044;-59
2021/08/21 07:37:14;;;;;;;8.70;6.18;;;17.10;99.90;;;;;;5020748;28;20033;-59
2021/08/21 07:39:39;;;;;;;11.98;6.03;;;17.20;99.90;;;;;;5021555;28;20053;-59
2021/08/21 07:42:05;;;;;;;9.13;6.30;;;17.30;99.90;;;;;;5011013;28;20084;-60
2021/08/21 07:44:30;;;;;;;7.75;5.88;;;17.40;99.90;;;;;;5010306;28;20438;-59
2021/08/21 07:46:56;;;;;;;7.80;5.65;;;17.40;99.90;;;;;;5011469;28;20451;-59
2021/08/21 07:49:21;;;;;;;7.18;4.85;;;17.50;99.90;;;;;;5012123;28;20017;-62
2021/08/21 07:51:47;;;;;;;6.47;5.18;;;17.60;99.90;;;;;;5022012;28;20524;-61
2021/08/21 07:54:13;;;;;;;6.43;5.10;;;17.60;99.90;;;;;;5019689;28;20030;-63
2021/08/21 07:56:38;;;;;;;10.57;4.95;;;17.80;99.90;;;;;;5011293;28;20038;-57
2021/08/21 07:59:04;;;;;;;7.95;3.70;;;17.80;99.90;;;;;;5022013;28;20034;-58
2021/08/21 08:01:29;;;;;;;8.07;4.40;;;17.90;99.90;;;;;;5022482;28;20786;-60
2021/08/21 08:03:55;;;;;;;6.07;4.68;;;18.00;99.90;;;;;;5023699;28;20037;-64
2021/08/21 08:06:21;;;;;;;8.73;5.43;;;18.10;99.90;;;;;;5030328;28;20048;-57
2021/08/21 08:08:46;;;;;;;9.55;4.10;;;18.10;99.90;;;;;;5021394;28;20673;-59
2021/08/21 08:11:12;;;;;;;6.65;4.60;;;18.30;99.90;;;;;;5017806;28;20061;-58
2021/08/21 08:13:37;;;;;;;5.93;4.35;;;18.30;99.90;;;;;;5018184;28;20060;-59
2021/08/21 08:16:03;;;;;;;12.60;4.68;;;18.40;99.90;;;;;;5019877;28;20060;-57
2021/08/21 08:18:29;;;;;;;7.53;4.82;;;18.50;99.90;;;;;;5027128;28;20084;-59
2021/08/21 08:20:54;;;;;;;6.10;5.00;;;18.70;99.90;;;;;;5011702;28;20025;-63
2021/08/21 08:23:20;;;;;;;10.77;5.15;;;18.80;99.90;;;;;;5023541;28;20026;-56
2021/08/21 08:25:45;;;;;;;6.68;3.95;;;18.90;99.90;;;;;;5015691;28;20025;-58
2021/08/21 08:28:11;;;;;;;6.78;4.75;;;18.90;99.90;;;;;;5023586;28;20060;-57
2021/08/21 08:30:37;;;;;;;9.27;3.97;;;19.00;99.90;;;;;;5024167;28;20121;-62
2021/08/21 08:33:02;;;;;;;5.30;4.25;;;19.20;99.90;;;;;;5024732;28;20201;-59
2021/08/21 08:35:28;;;;;;;7.28;5.15;;;19.30;99.90;;;;;;5021838;28;20037;-58
2021/08/21 08:37:53;;;;;;;8.57;5.97;;;19.50;99.90;;;;;;5019563;28;20060;-59
2021/08/21 08:40:19;;;;;;;7.82;4.93;;;19.60;99.90;;;;;;5022629;28;20038;-61
2021/08/21 08:42:45;;;;;;;12.27;6.20;;;19.70;99.90;;;;;;5026272;28;20033;-59
2021/08/21 08:45:12;;;;;;;9.32;5.28;;;19.80;99.90;;;;;;5028034;28;20072;-59
2021/08/21 08:47:38;;;;;;;8.55;4.78;;;19.90;99.90;;;;;;5049277;23;20049;-58
2021/08/21 08:50:07;;;;;;;10.38;5.30;;;20.00;99.90;;;;;;5027120;28;20030;-58
2021/08/21 08:52:34;;;;;;;10.05;7.05;;;20.10;99.90;;;;;;5029625;28;20529;-58
2021/08/21 08:55:00;;;;;;;8.48;5.70;;;20.10;99.90;;;;;;5033312;28;20037;-58
2021/08/21 08:57:36;;;;;;;7.05;5.28;;;20.20;99.90;;;;;;5026704;28;20033;-59
2021/08/21 09:00:08;;;;;;;7.65;5.10;;;20.20;99.90;;;;;;4997273;28;20026;-59
2021/08/21 09:02:46;;;;;;;12.07;5.60;;;20.40;99.90;;;;;;5007692;28;20022;-60
2021/08/21 09:05:14;;;;;;;8.30;6.20;;;20.50;99.90;;;;;;5006478;28;20077;-59
2021/08/21 09:07:53;;;;;;;5.15;4.15;;;20.60;99.90;;;;;;5005004;28;20505;-58
2021/08/21 09:10:21;;;;;;;8.75;5.05;;;20.70;99.90;;;;;;5005952;28;20037;-60
2021/08/21 09:12:49;;;;;;;9.68;6.15;;;20.80;99.90;;;;;;5002843;28;20053;-58
2021/08/21 09:15:19;;;;;;;9.48;5.60;;;20.90;99.90;;;;;;5008757;28;20046;-62
2021/08/21 09:18:11;;;;;;;9.73;5.38;;;21.00;99.90;;;;;;5009653;28;20036;-60
2021/08/21 09:20:48;;;;;;;12.07;4.65;;;21.20;99.90;;;;;;5003394;28;20017;-60
2021/08/21 09:23:26;;;;;;;8.88;4.68;;;21.30;99.90;;;;;;5011947;28;20076;-59
2021/08/21 09:26:14;;;;;;;9.27;4.70;;;21.40;99.90;;;;;;5011674;28;20022;-62
2021/08/21 09:28:44;;;;;;;8.93;5.00;;;21.60;99.90;;;;;;5008253;28;20074;-61
2021/08/21 09:31:15;;;;;;;14.60;4.93;;;21.80;99.90;;;;;;5008282;28;20504;-58
2021/08/21 09:33:50;;;;;;;6.85;4.03;;;21.90;99.90;;;;;;5005269;28;20133;-60
2021/08/21 09:36:27;;;;;;;10.77;4.45;;;22.00;99.90;;;;;;5011134;28;20033;-59
2021/08/21 09:38:52;;;;;;;6.25;3.72;;;22.20;99.90;;;;;;5002507;28;20520;-59
2021/08/21 09:41:18;;;;;;;8.93;3.67;;;22.30;99.90;;;;;;5004471;28;20034;-61
2021/08/21 09:43:43;;;;;;;10.45;3.40;;;22.40;99.90;;;;;;5001858;28;20052;-61
2021/08/21 09:46:10;;;;;;;10.68;4.25;;;22.50;99.90;;;;;;5015136;28;20037;-62
2021/08/21 09:49:19;;;;;;;8.57;3.67;;;22.50;99.90;;;;;;5011065;28;20030;-60
2021/08/21 09:51:47;;;;;;;18.45;3.50;;;22.70;99.90;;;;;;5005109;28;20080;-62
2021/08/21 09:54:18;;;;;;;9.27;3.58;;;22.90;99.90;;;;;;5024522;28;20029;-63
2021/08/21 09:56:56;;;;;;;4.63;2.83;;;23.00;99.90;;;;;;5014652;28;20023;-63
2021/08/21 09:59:35;;;;;;;7.47;4.35;;;23.20;99.90;;;;;;5011617;28;20059;-63
2021/08/21 10:02:10;;;;;;;11.70;3.92;;;23.20;99.90;;;;;;5006768;28;20067;-61
2021/08/21 10:04:40;;;;;;;3.78;2.85;;;23.30;99.90;;;;;;5011679;28;20036;-61
2021/08/21 10:07:09;;;;;;;7.28;3.80;;;23.50;99.90;;;;;;5009556;28;20029;-60
2021/08/21 10:09:38;;;;;;;6.63;4.50;;;23.70;99.90;;;;;;5011709;28;20026;-61
2021/08/21 10:12:06;;;;;;;8.57;4.40;;;23.90;99.90;;;;;;5008621;28;20165;-61
2021/08/21 10:14:32;;;;;;;8.77;3.75;;;24.00;99.90;;;;;;5011860;28;20040;-61
2021/08/21 10:16:59;;;;;;;6.50;3.80;;;24.10;99.90;;;;;;5012088;28;20080;-57
2021/08/21 10:19:25;;;;;;;9.45;4.45;;;24.20;99.90;;;;;;5010128;28;20029;-61
2021/08/21 10:21:56;;;;;;;5.35;4.40;;;24.50;99.90;;;;;;5017932;28;20555;-61
2021/08/21 10:24:32;;;;;;;6.10;3.25;;;24.60;99.90;;;;;;5012409;28;20053;-61
2021/08/21 10:27:15;;;;;;;6.00;3.25;;;24.70;99.90;;;;;;5009100;28;20101;-59
2021/08/21 10:29:59;;;;;;;4.60;3.30;;;24.90;99.90;;;;;;5010504;28;20029;-60
2021/08/21 10:32:39;;;;;;;9.10;3.00;;;25.00;99.90;;;;;;5010172;28;20091;-59
2021/08/21 10:35:06;;;;;;;6.97;3.55;;;25.20;99.90;;;;;;5011284;28;20038;-59
2021/08/21 10:37:39;;;;;;;4.22;3.15;;;25.30;99.90;;;;;;5009941;28;20033;-60
2021/08/21 10:40:27;;;;;;;5.80;2.63;;;25.30;99.90;;;;;;5004890;28;20048;-61
2021/08/21 10:42:56;;;;;;;6.15;2.60;;;25.50;99.90;;;;;;5016046;28;20101;-59
2021/08/21 10:45:39;;;;;;;19.45;5.63;;;25.60;99.90;;;;;;5010910;28;20064;-60
2021/08/21 10:48:25;;;;;;;10.30;4.10;;;25.80;99.90;;;;;;5006178;28;20034;-61
2021/08/21 10:50:51;;;;;;;5.43;3.58;;;25.80;99.90;;;;;;5012244;28;20030;-60
2021/08/21 10:53:27;;;;;;;4.65;3.17;;;25.70;99.90;;;;;;5014798;28;20036;-62
2021/08/21 10:55:54;;;;;;;5.75;2.97;;;25.50;99.90;;;;;;5012564;28;20034;-61
2021/08/21 10:58:22;;;;;;;15.45;4.65;;;25.70;99.90;;;;;;5010391;28;20033;-62
2021/08/21 11:01:07;;;;;;;13.13;4.75;;;25.60;99.90;;;;;;5014462;28;20508;-62
2021/08/21 11:03:33;;;;;;;7.35;3.95;;;25.60;99.90;;;;;;5011561;28;20546;-60
2021/08/21 11:06:04;;;;;;;5.88;3.30;;;25.90;99.90;;;;;;5006961;28;20109;-60
2021/08/21 11:08:33;;;;;;;7.72;3.53;;;25.80;99.90;;;;;;5006600;28;20490;-62
2021/08/21 11:11:12;;;;;;;5.90;3.40;;;25.60;99.90;;;;;;5008548;28;20065;-63
2021/08/21 11:14:02;;;;;;;10.23;3.97;;;25.20;99.90;;;;;;5011319;28;20042;-61
2021/08/21 11:16:50;;;;;;;11.80;4.53;;;25.30;99.90;;;;;;5010300;28;20030;-60
2021/08/21 11:19:36;;;;;;;6.28;3.88;;;25.40;99.90;;;;;;5005181;28;20034;-61
2021/08/21 11:22:30;;;;;;;19.63;5.07;;;25.50;99.90;;;;;;5006687;28;20029;-61
2021/08/21 11:25:00;;;;;;;5.25;3.38;;;25.80;99.90;;;;;;5012058;28;20109;-63
2021/08/21 11:27:26;;;;;;;6.43;3.47;;;26.20;99.90;;;;;;5010614;28;20030;-62
2021/08/21 11:30:12;;;;;;;3.92;2.60;;;26.30;99.90;;;;;;5011660;28;20029;-61
2021/08/21 11:32:57;;;;;;;4.43;3.70;;;26.30;99.90;;;;;;5010940;28;20088;-61
2021/08/21 11:35:54;;;;;;;3.90;3.00;;;26.40;99.90;;;;;;5011486;28;20500;-61
2021/08/21 11:38:31;;;;;;;10.82;3.70;;;26.60;99.90;;;;;;5015554;28;20121;-63
2021/08/21 11:41:02;;;;;;;5.40;3.45;;;26.70;99.90;;;;;;5015400;28;20033;-62
2021/08/21 11:43:33;;;;;;;5.63;2.80;;;26.80;99.90;;;;;;5008354;28;20034;-62
2021/08/21 11:46:01;;;;;;;3.80;3.25;;;27.10;99.90;;;;;;5011864;28;20104;-62
2021/08/21 11:48:28;;;;;;;7.00;3.25;;;27.00;99.90;;;;;;5011381;28;20038;-62
2021/08/21 11:50:54;;;;;;;4.15;3.10;;;27.10;99.90;;;;;;5010208;28;20374;-61
2021/08/21 11:53:22;;;;;;;5.82;3.08;;;27.20;99.90;;;;;;5016415;28;20030;-62
2021/08/21 11:55:52;;;;;;;4.28;2.95;;;27.50;99.90;;;;;;5016471;28;20034;-62
2021/08/21 11:58:33;;;;;;;5.78;3.13;;;27.40;99.90;;;;;;5011580;28;20057;-63
2021/08/21 12:01:12;;;;;;;4.25;2.90;;;27.50;99.90;;;;;;5011548;28;20029;-60
2021/08/21 12:06:26;;;;;;;6.30;3.55;;;27.50;99.90;;;;;;5009832;28;20459;-62
2021/08/21 12:24:14;;;;;;;85.10;24.73;;;27.50;99.90;;;;;;5111039;27;20403;-60
2021/08/21 12:26:46;;;;;;;26.27;11.50;;;27.90;99.90;;;;;;5094324;28;20522;-62
2021/08/21 12:29:32;;;;;;;5.35;3.33;;;28.00;99.90;;;;;;5083850;22;20124;-61
2021/08/21 12:32:00;;;;;;;41.55;18.15;;;27.80;99.90;;;;;;5057045;28;20029;-61
2021/08/21 12:34:27;;;;;;;9.88;4.55;;;27.60;99.90;;;;;;5066012;28;20124;-61
2021/08/21 12:36:57;;;;;;;11.65;4.65;;;27.70;99.90;;;;;;5061579;28;20399;-62
2021/08/21 12:39:27;;;;;;;7.25;4.38;;;28.00;99.90;;;;;;5056998;28;20025;-62
2021/08/21 12:41:55;;;;;;;25.13;8.95;;;27.60;99.90;;;;;;5066501;28;20021;-62
2021/08/21 12:44:42;;;;;;;6.60;3.47;;;27.60;99.90;;;;;;5061882;28;20521;-63
2021/08/21 12:47:16;;;;;;;18.35;7.70;;;27.50;99.90;;;;;;5057953;28;20033;-63
2021/08/21 12:49:47;;;;;;;6.30;3.92;;;27.90;99.90;;;;;;5059579;28;20025;-63
2021/08/21 12:52:27;;;;;;;3.85;2.85;;;27.80;99.90;;;;;;5025809;28;20033;-62
2021/08/21 12:55:02;;;;;;;23.52;10.27;;;28.30;99.90;;;;;;5052535;28;20037;-63
2021/08/21 12:57:34;;;;;;;;;;;28.10;99.90;;;;;;5061462;28;20442;-63
2021/08/21 13:00:12;;;;;;;14.13;7.13;;;28.30;99.90;;;;;;5059741;28;19920;-63
2021/08/21 13:02:52;;;;;;;5.95;4.20;;;28.00;99.90;;;;;;5063515;28;20025;-63
2021/08/21 13:05:29;;;;;;;4.90;3.47;;;28.00;99.90;;;;;;5064813;28;20116;-63